Time;durP1;ratioP1;P1;durP2;ratioP2;P2;SDS_P1;SDS_P2;PMS_P1;PMS_P2;Temp;Humidity;BMP_temperature;BMP_pressure;BME280_temperature;BME280_humidity;BME280_pressure;Samples;Min_cycle;Max_cycle;Signal;HPM_P1;HPM_P2
2022/01/30 00:11:25;;;;;;;81.85;16.17;;;8.00;99.90;;;;;;4183335;26;20664;-87
2022/01/30 00:35:58;;;;;;;81.22;13.93;;;7.90;99.90;;;;;;4915203;29;20209;-88
2022/01/30 00:48:40;;;;;;;82.25;13.98;;;7.70;99.90;;;;;;5142010;23;20231;-89
2022/01/30 00:58:36;;;;;;;87.13;24.40;;;7.50;99.90;;;;;;4936568;29;20200;-89
2022/01/30 01:01:44;;;;;;;;;;;;;;;;;;;;;
2022/01/30 01:07:15;;;;;;;90.63;36.90;;;7.50;99.90;;;;;;4936610;29;20156;-89
2022/01/30 01:47:22;;;;;;;94.88;48.85;;;7.10;99.90;;;;;;4804963;23;20196;-86
2022/01/30 01:49:59;;;;;;;88.38;47.20;;;7.00;99.90;;;;;;4941314;29;20172;-86
2022/01/30 01:52:26;;;;;;;93.75;36.90;;;6.90;99.90;;;;;;4940414;29;20227;-86
2022/01/30 01:54:58;;;;;;;88.97;43.67;;;6.90;99.90;;;;;;4940022;29;20216;-86
2022/01/30 01:57:33;;;;;;;84.57;40.03;;;6.90;99.90;;;;;;4940804;29;20225;-87
2022/01/30 02:00:07;;;;;;;95.45;62.47;;;6.90;99.90;;;;;;4940031;29;20179;-86
2022/01/30 02:02:41;;;;;;;92.30;55.45;;;6.90;99.90;;;;;;4941497;29;20609;-86
2022/01/30 02:05:36;;;;;;;95.43;59.15;;;6.90;99.90;;;;;;4940989;29;20657;-86
2022/01/30 02:11:12;;;;;;;90.72;53.65;;;6.90;99.90;;;;;;4940841;29;20351;-86
2022/01/30 02:14:14;;;;;;;89.25;46.97;;;6.90;99.90;;;;;;4939341;29;20220;-86
2022/01/30 02:25:01;;;;;;;88.38;54.40;;;6.70;99.90;;;;;;4944784;29;20195;-86
2022/01/30 02:27:36;;;;;;;106.18;55.30;;;6.70;99.90;;;;;;4960214;28;20196;-86
2022/01/30 02:30:33;;;;;;;98.43;52.95;;;6.70;99.90;;;;;;4960147;29;20164;-86
2022/01/30 02:33:02;;;;;;;96.43;57.47;;;6.70;99.90;;;;;;4944405;29;20212;-86
2022/01/30 02:35:29;;;;;;;99.22;56.22;;;6.60;99.90;;;;;;4942957;29;20185;-86
2022/01/30 02:37:57;;;;;;;100.63;65.53;;;6.60;99.90;;;;;;4942476;29;20259;-86
2022/01/30 02:40:23;;;;;;;90.80;36.90;;;6.50;99.90;;;;;;4944124;29;20164;-86
2022/01/30 02:43:02;;;;;;;85.65;38.05;;;6.50;99.90;;;;;;4942920;29;20698;-86
2022/01/30 02:45:43;;;;;;;81.30;32.30;;;6.50;99.90;;;;;;4942826;29;20572;-86
2022/01/30 02:51:06;;;;;;;;;;;;;;;;;;;;;
2022/01/30 02:53:38;;;;;;;91.53;33.13;;;6.50;99.90;;;;;;4944129;29;20716;-87
2022/01/30 02:56:07;;;;;;;89.60;30.10;;;6.50;99.90;;;;;;4942641;29;20197;-86
2022/01/30 02:58:48;;;;;;;82.03;33.40;;;6.50;99.90;;;;;;4943387;29;20171;-86
2022/01/30 03:01:28;;;;;;;90.30;38.35;;;6.50;99.90;;;;;;4958733;29;20176;-86
2022/01/30 03:03:57;;;;;;;90.18;34.10;;;6.40;99.90;;;;;;4942656;29;20179;-86
2022/01/30 03:06:23;;;;;;;84.80;31.20;;;6.50;99.90;;;;;;4943444;29;20197;-87
2022/01/30 03:08:53;;;;;;;96.97;49.60;;;6.40;99.90;;;;;;4944165;29;20171;-86
2022/01/30 03:11:26;;;;;;;95.18;43.03;;;6.40;99.90;;;;;;4958702;29;20424;-86
2022/01/30 03:14:07;;;;;;;92.85;49.65;;;6.40;99.90;;;;;;4943825;29;20185;-86
2022/01/30 03:16:38;;;;;;;104.57;51.15;;;6.50;99.90;;;;;;4944025;29;20149;-86
2022/01/30 03:19:04;;;;;;;91.07;55.92;;;6.40;99.90;;;;;;4942587;29;20175;-86
2022/01/30 03:21:30;;;;;;;91.87;52.93;;;6.40;99.90;;;;;;4943191;29;20193;-86
2022/01/30 03:24:07;;;;;;;91.27;47.30;;;6.40;99.90;;;;;;4943272;29;20434;-86
2022/01/30 03:26:42;;;;;;;80.70;31.73;;;6.30;99.90;;;;;;4942560;29;20380;-86
2022/01/30 03:29:09;;;;;;;87.28;40.50;;;6.30;99.90;;;;;;4942203;29;20200;-86
2022/01/30 03:31:45;;;;;;;95.50;46.58;;;6.20;99.90;;;;;;4942669;29;20185;-86
2022/01/30 03:34:12;;;;;;;92.95;28.70;;;6.20;99.90;;;;;;4943375;29;20545;-86
2022/01/30 03:36:40;;;;;;;81.13;23.38;;;6.20;99.90;;;;;;4943474;29;20157;-87
2022/01/30 03:39:10;;;;;;;81.57;23.95;;;6.20;99.90;;;;;;4941697;29;20246;-86
2022/01/30 03:41:39;;;;;;;87.57;32.00;;;6.20;99.90;;;;;;4943637;29;20272;-86
2022/01/30 03:44:14;;;;;;;97.25;36.78;;;6.20;99.90;;;;;;4942660;29;20617;-86
2022/01/30 03:46:43;;;;;;;81.85;32.42;;;6.20;99.90;;;;;;4941268;29;20667;-86
2022/01/30 03:49:12;;;;;;;82.05;30.75;;;6.20;99.90;;;;;;4942647;29;20239;-86
2022/01/30 03:51:43;;;;;;;90.20;31.08;;;6.20;99.90;;;;;;4941192;29;20173;-86
2022/01/30 03:54:15;;;;;;;82.35;36.33;;;6.20;99.90;;;;;;4941718;29;20288;-86
2022/01/30 03:56:44;;;;;;;82.25;24.58;;;6.20;99.90;;;;;;4942554;29;20169;-86
2022/01/30 03:59:09;;;;;;;97.43;35.38;;;6.20;99.90;;;;;;4941567;29;20172;-86
2022/01/30 04:01:37;;;;;;;83.70;36.17;;;6.20;99.90;;;;;;4941608;29;20168;-87
2022/01/30 04:04:06;;;;;;;86.10;34.38;;;6.20;99.90;;;;;;4941472;29;20417;-86
2022/01/30 04:06:35;;;;;;;86.45;44.63;;;6.20;99.90;;;;;;4940877;29;20613;-86
2022/01/30 04:09:03;;;;;;;91.38;41.63;;;6.20;99.90;;;;;;4940932;29;20208;-86
2022/01/30 04:11:35;;;;;;;90.55;41.15;;;6.20;99.90;;;;;;4957138;28;20541;-86
2022/01/30 04:14:10;;;;;;;82.10;33.05;;;6.10;99.90;;;;;;4942478;29;20667;-86
2022/01/30 04:16:39;;;;;;;98.20;38.17;;;6.10;99.90;;;;;;4942978;29;20157;-86
2022/01/30 04:19:08;;;;;;;82.50;36.92;;;6.10;99.90;;;;;;4942184;29;20172;-87
2022/01/30 04:22:06;;;;;;;79.70;24.58;;;6.10;99.90;;;;;;4940470;29;20296;-86
2022/01/30 04:24:41;;;;;;;78.93;21.30;;;6.00;99.90;;;;;;4956520;28;20568;-86
2022/01/30 04:27:25;;;;;;;;;;;;;;;;;;;;;
2022/01/30 04:30:03;;;;;;;84.32;27.40;;;6.00;99.90;;;;;;4942740;29;20224;-86
2022/01/30 04:32:30;;;;;;;96.20;25.25;;;6.00;99.90;;;;;;4940072;29;20214;-87
2022/01/30 04:35:10;;;;;;;83.72;23.17;;;5.90;99.90;;;;;;4942507;29;20180;-87
2022/01/30 04:57:55;;;;;;;84.28;27.02;;;5.90;99.90;;;;;;4941384;29;20155;-86
2022/01/30 05:06:17;;;;;;;101.80;75.05;;;5.90;99.90;;;;;;4941464;29;20203;-86
2022/01/30 05:08:46;;;;;;;114.25;101.35;;;5.90;99.90;;;;;;4940430;29;20263;-87
2022/01/30 05:11:11;;;;;;;101.03;68.72;;;5.90;99.90;;;;;;4955534;29;20266;-86
2022/01/30 05:13:43;;;;;;;99.13;49.77;;;5.90;99.90;;;;;;4940902;29;20271;-87
2022/01/30 05:16:17;;;;;;;83.72;31.95;;;6.00;99.90;;;;;;4940490;29;20211;-86
2022/01/30 05:18:43;;;;;;;102.45;44.85;;;6.00;99.90;;;;;;4941714;29;20235;-86
2022/01/30 05:21:28;;;;;;;91.00;24.92;;;6.10;99.90;;;;;;4941305;29;20220;-86
2022/01/30 05:24:10;;;;;;;79.38;21.50;;;6.10;99.90;;;;;;4955972;29;20199;-87
2022/01/30 05:27:02;;;;;;;89.03;26.20;;;6.10;99.90;;;;;;4941026;29;20179;-87
2022/01/30 05:29:34;;;;;;;77.18;20.35;;;6.10;99.90;;;;;;4940665;29;20185;-86
2022/01/30 05:32:03;;;;;;;102.63;53.95;;;6.20;99.90;;;;;;4940177;29;20176;-87
2022/01/30 05:34:37;;;;;;;88.22;45.00;;;6.10;99.90;;;;;;4940987;29;20189;-86
2022/01/30 05:37:05;;;;;;;113.35;89.40;;;6.10;99.90;;;;;;4939941;29;20256;-86
2022/01/30 05:39:34;;;;;;;83.20;37.53;;;6.10;99.90;;;;;;4939695;29;20173;-86
2022/01/30 05:42:12;;;;;;;90.05;30.00;;;6.10;99.90;;;;;;4941305;29;20199;-87
2022/01/30 05:47:44;;;;;;;84.07;24.65;;;6.10;99.90;;;;;;4941698;29;20602;-86
2022/01/30 05:50:16;;;;;;;83.32;19.77;;;6.00;99.90;;;;;;4943513;29;20233;-86
2022/01/30 05:52:45;;;;;;;79.13;20.20;;;6.00;99.90;;;;;;4944825;29;20188;-86
2022/01/30 05:55:17;;;;;;;91.03;26.85;;;6.00;99.90;;;;;;4959403;28;20660;-86
2022/01/30 05:57:47;;;;;;;83.68;25.83;;;6.00;99.90;;;;;;4943796;29;20165;-86
2022/01/30 06:00:32;;;;;;;90.68;50.55;;;6.00;99.90;;;;;;4943655;29;20169;-87
2022/01/30 06:03:06;;;;;;;88.82;41.45;;;5.90;99.90;;;;;;4943580;29;20172;-86
2022/01/30 06:05:45;;;;;;;89.88;52.08;;;5.90;99.90;;;;;;4943415;29;20575;-87
2022/01/30 06:11:15;;;;;;;83.63;25.13;;;6.00;99.90;;;;;;4945110;29;20161;-86
2022/01/30 06:13:41;;;;;;;77.75;22.85;;;6.00;99.90;;;;;;4943613;29;20287;-86
2022/01/30 06:16:10;;;;;;;89.47;27.77;;;5.90;99.90;;;;;;4958701;28;20279;-87
2022/01/30 06:18:35;;;;;;;95.35;35.95;;;5.90;99.90;;;;;;4942559;29;20462;-86
2022/01/30 06:21:32;;;;;;;;;;;;;;;;;;;;;
2022/01/30 06:23:58;;;;;;;77.32;20.58;;;5.90;99.90;;;;;;4944502;29;20491;-86
2022/01/30 06:26:57;;;;;;;79.97;18.23;;;5.90;99.90;;;;;;4943919;29;20193;-86
2022/01/30 06:29:22;;;;;;;81.43;16.55;;;5.90;99.90;;;;;;4942560;29;20180;-86
2022/01/30 06:31:54;;;;;;;76.17;22.13;;;5.90;99.90;;;;;;4958869;29;20184;-86
2022/01/30 06:34:20;;;;;;;87.40;46.13;;;5.90;99.90;;;;;;4942855;29;20419;-86
2022/01/30 06:36:59;;;;;;;84.70;42.75;;;5.90;99.90;;;;;;4943074;29;20169;-86
2022/01/30 06:39:33;;;;;;;91.97;41.97;;;5.90;99.90;;;;;;4959628;29;20529;-86
2022/01/30 06:42:14;;;;;;;87.82;34.65;;;5.80;99.90;;;;;;4945676;29;20176;-87
2022/01/30 06:44:55;;;;;;;90.35;38.95;;;5.80;99.90;;;;;;4944097;29;20192;-87
2022/01/30 06:47:23;;;;;;;86.25;33.67;;;5.80;99.90;;;;;;4943410;29;20264;-86
2022/01/30 06:50:01;;;;;;;78.70;25.63;;;5.80;99.90;;;;;;4943858;29;20207;-87
2022/01/30 06:52:36;;;;;;;90.63;24.23;;;5.80;99.90;;;;;;4943156;29;20196;-86
2022/01/30 06:55:05;;;;;;;80.75;35.40;;;5.80;99.90;;;;;;4960052;28;20627;-87
2022/01/30 06:57:32;;;;;;;91.90;46.47;;;5.90;99.90;;;;;;4943246;29;20640;-86
2022/01/30 07:00:07;;;;;;;84.97;44.38;;;5.90;99.90;;;;;;4942889;29;20200;-87
2022/01/30 07:02:48;;;;;;;104.43;50.22;;;5.90;99.90;;;;;;4942904;29;20168;-86
2022/01/30 07:05:31;;;;;;;87.43;46.00;;;5.90;99.90;;;;;;4944220;29;20188;-86
2022/01/30 07:08:00;;;;;;;89.63;28.67;;;6.00;99.90;;;;;;4943172;29;20256;-86
2022/01/30 07:10:26;;;;;;;83.22;25.48;;;6.00;99.90;;;;;;4944308;29;20223;-87
2022/01/30 07:12:52;;;;;;;98.50;51.40;;;6.00;99.90;;;;;;4944307;29;20587;-86
2022/01/30 07:15:27;;;;;;;76.70;21.73;;;6.00;99.90;;;;;;4942996;29;20435;-86
2022/01/30 07:17:53;;;;;;;80.00;15.85;;;6.00;99.90;;;;;;4943973;29;20387;-87
2022/01/30 07:20:27;;;;;;;76.37;14.87;;;6.00;99.90;;;;;;4943562;29;20223;-86
2022/01/30 07:22:59;;;;;;;83.03;19.13;;;6.00;99.90;;;;;;4943027;29;20915;-87
2022/01/30 07:25:43;;;;;;;85.05;30.40;;;6.00;99.90;;;;;;4958762;28;20196;-86
2022/01/30 07:28:19;;;;;;;90.55;34.15;;;6.00;99.90;;;;;;4942801;29;20168;-86
2022/01/30 07:30:56;;;;;;;81.53;23.55;;;6.00;99.90;;;;;;4943566;29;20155;-86
2022/01/30 07:33:40;;;;;;;83.10;21.60;;;6.00;99.90;;;;;;4942382;29;20268;-87
2022/01/30 07:39:19;;;;;;;102.60;41.00;;;5.90;99.90;;;;;;4943542;29;20215;-87
2022/01/30 07:42:24;;;;;;;90.93;46.65;;;5.90;99.90;;;;;;4958434;29;20169;-86
2022/01/30 07:45:24;;;;;;;98.72;63.45;;;5.90;99.90;;;;;;4943046;29;20664;-87
2022/01/30 07:47:50;;;;;;;92.75;48.55;;;5.90;99.90;;;;;;5014090;23;20224;-87
2022/01/30 07:50:16;;;;;;;93.00;54.22;;;5.80;99.90;;;;;;4948780;29;20224;-86
2022/01/30 07:52:42;;;;;;;88.85;33.30;;;5.90;99.90;;;;;;4948637;29;20247;-87
2022/01/30 07:55:08;;;;;;;87.40;48.67;;;5.90;99.90;;;;;;4946747;29;20188;-86
2022/01/30 07:57:34;;;;;;;87.22;48.20;;;5.90;99.90;;;;;;4946857;29;20172;-87
2022/01/30 07:59:59;;;;;;;91.17;45.87;;;6.00;99.90;;;;;;4946915;29;20233;-86
2022/01/30 08:02:28;;;;;;;101.50;47.27;;;6.00;99.90;;;;;;4946146;29;20176;-87
2022/01/30 08:04:54;;;;;;;90.70;48.47;;;5.90;99.90;;;;;;4946003;29;20220;-86
2022/01/30 08:07:21;;;;;;;91.40;46.58;;;6.00;99.90;;;;;;4947781;29;20204;-87
2022/01/30 08:09:47;;;;;;;84.03;44.45;;;6.00;99.90;;;;;;5022530;23;20238;-87
2022/01/30 08:12:19;;;;;;;92.23;55.00;;;6.00;99.90;;;;;;4947999;29;20164;-87
2022/01/30 08:14:45;;;;;;;97.03;45.58;;;6.00;99.90;;;;;;4948897;29;20437;-87
2022/01/30 08:17:17;;;;;;;84.65;48.85;;;6.10;99.90;;;;;;4948802;29;20292;-87
2022/01/30 08:19:44;;;;;;;86.45;49.85;;;6.00;99.90;;;;;;4947512;29;20171;-87
2022/01/30 08:22:10;;;;;;;89.53;44.25;;;6.10;99.90;;;;;;4948269;29;20169;-87
2022/01/30 08:24:36;;;;;;;88.30;45.57;;;6.10;99.90;;;;;;4948293;29;20192;-86
2022/01/30 08:27:01;;;;;;;87.93;46.50;;;6.10;99.90;;;;;;4948452;29;20223;-87
2022/01/30 08:29:27;;;;;;;85.37;30.87;;;6.10;99.90;;;;;;4945892;29;20228;-85
2022/01/30 08:31:53;;;;;;;87.43;44.63;;;6.10;99.90;;;;;;4943951;29;20179;-86
2022/01/30 08:34:18;;;;;;;84.33;30.60;;;6.10;99.90;;;;;;4943887;29;20235;-86
2022/01/30 08:36:44;;;;;;;86.07;32.97;;;6.10;99.90;;;;;;4946053;29;20408;-86
2022/01/30 08:39:10;;;;;;;88.47;42.80;;;6.10;99.90;;;;;;4945406;29;20205;-86
2022/01/30 08:41:35;;;;;;;86.87;47.57;;;6.10;99.90;;;;;;4944752;29;20192;-87
2022/01/30 08:44:01;;;;;;;82.77;26.03;;;6.10;99.90;;;;;;4945038;29;20236;-87
2022/01/30 08:46:27;;;;;;;80.13;21.57;;;6.20;99.90;;;;;;4943472;29;20196;-86
2022/01/30 08:48:52;;;;;;;78.73;15.50;;;6.20;99.90;;;;;;4941238;29;20572;-86
2022/01/30 08:51:20;;;;;;;81.60;12.40;;;6.20;99.90;;;;;;4942059;29;20232;-85
2022/01/30 08:53:46;;;;;;;78.25;12.35;;;6.20;99.90;;;;;;4942614;29;20202;-86
2022/01/30 08:56:12;;;;;;;77.20;10.40;;;6.10;99.90;;;;;;4941426;29;20208;-86
2022/01/30 08:58:38;;;;;;;72.15;13.18;;;6.10;99.90;;;;;;4939935;29;20176;-86
2022/01/30 09:01:04;;;;;;;82.93;14.93;;;6.20;99.90;;;;;;4941691;29;20168;-86
2022/01/30 09:03:29;;;;;;;86.67;16.60;;;6.10;99.90;;;;;;4943193;29;20169;-87
2022/01/30 09:05:55;;;;;;;75.40;14.70;;;6.20;99.90;;;;;;4941380;29;20197;-86
2022/01/30 09:08:21;;;;;;;74.87;11.77;;;6.20;99.90;;;;;;4941799;29;20640;-86
2022/01/30 09:10:46;;;;;;;80.50;11.70;;;6.30;99.90;;;;;;4942261;29;20454;-86
2022/01/30 09:13:12;;;;;;;74.20;11.33;;;6.30;99.90;;;;;;4941453;29;20204;-86
2022/01/30 09:15:41;;;;;;;79.07;11.00;;;6.40;99.90;;;;;;4943630;29;20657;-86
2022/01/30 09:18:09;;;;;;;76.45;11.10;;;6.50;99.90;;;;;;4941371;29;20187;-85
2022/01/30 09:20:37;;;;;;;81.53;10.80;;;6.50;99.90;;;;;;4942091;29;20185;-86
2022/01/30 09:23:03;;;;;;;71.13;11.38;;;6.50;99.90;;;;;;4941418;29;20268;-86
2022/01/30 09:25:29;;;;;;;78.32;18.15;;;6.60;99.90;;;;;;4945734;29;20184;-86
2022/01/30 09:27:54;;;;;;;72.30;12.07;;;6.60;99.90;;;;;;4946108;29;20652;-85
2022/01/30 09:30:20;;;;;;;80.30;11.50;;;6.70;99.90;;;;;;4947246;29;20520;-86
2022/01/30 09:32:47;;;;;;;87.88;16.15;;;6.80;99.90;;;;;;4946685;29;20283;-86
2022/01/30 09:35:13;;;;;;;84.28;22.20;;;6.80;99.90;;;;;;4945034;29;20201;-86
2022/01/30 09:37:44;;;;;;;87.63;28.70;;;6.80;99.90;;;;;;4944771;29;20636;-85
2022/01/30 09:40:10;;;;;;;84.20;31.20;;;6.80;99.90;;;;;;4944129;29;20920;-86
2022/01/30 09:42:37;;;;;;;83.38;32.28;;;6.80;99.90;;;;;;4943716;29;20268;-86
2022/01/30 09:45:04;;;;;;;79.85;31.23;;;6.80;99.90;;;;;;4945118;29;20188;-85
2022/01/30 09:47:32;;;;;;;85.32;30.67;;;6.90;99.90;;;;;;4944300;29;20176;-85
2022/01/30 09:49:59;;;;;;;90.60;34.92;;;6.90;99.90;;;;;;4943179;29;20268;-84
2022/01/30 09:52:25;;;;;;;87.15;40.60;;;6.90;99.90;;;;;;4943595;29;20189;-86
2022/01/30 09:54:51;;;;;;;87.73;46.00;;;6.90;99.90;;;;;;4944632;29;20264;-86
2022/01/30 09:57:17;;;;;;;87.97;36.90;;;7.00;99.90;;;;;;4943978;29;20174;-86
2022/01/30 09:59:43;;;;;;;83.32;34.63;;;7.00;99.90;;;;;;4944144;29;20457;-85
2022/01/30 10:02:12;;;;;;;92.20;45.47;;;7.00;99.90;;;;;;4943496;29;20166;-86
2022/01/30 10:04:39;;;;;;;90.65;33.80;;;6.90;99.90;;;;;;4942259;29;20188;-86
2022/01/30 10:07:15;;;;;;;85.00;29.58;;;6.90;99.90;;;;;;4943038;29;20168;-85
2022/01/30 10:09:46;;;;;;;80.43;23.60;;;7.00;99.90;;;;;;4943619;29;20202;-86
2022/01/30 10:12:19;;;;;;;90.63;21.92;;;7.00;99.90;;;;;;4941884;29;20219;-85
2022/01/30 10:15:03;;;;;;;79.50;9.27;;;7.10;99.90;;;;;;4941826;29;20192;-86
2022/01/30 10:17:38;;;;;;;83.43;17.65;;;7.10;99.90;;;;;;4942402;29;20167;-85
2022/01/30 10:20:08;;;;;;;87.50;17.27;;;7.00;99.90;;;;;;4942654;29;20160;-85
2022/01/30 10:22:38;;;;;;;82.65;11.88;;;7.20;99.90;;;;;;4941573;29;20172;-86
2022/01/30 10:25:05;;;;;;;90.88;35.85;;;7.20;99.90;;;;;;4943773;29;20196;-85
2022/01/30 10:27:33;;;;;;;71.47;11.50;;;7.30;99.00;;;;;;4943222;29;20700;-86
2022/01/30 10:30:05;;;;;;;82.13;19.02;;;7.30;98.00;;;;;;4942315;29;20551;-86
2022/01/30 10:32:31;;;;;;;73.50;8.77;;;7.30;97.70;;;;;;4943236;29;20220;-86
2022/01/30 10:35:08;;;;;;;72.93;9.65;;;7.30;99.90;;;;;;4944313;29;20653;-85
2022/01/30 10:37:39;;;;;;;81.20;12.25;;;7.50;98.50;;;;;;4942905;29;20240;-85
2022/01/30 10:40:17;;;;;;;78.13;11.02;;;7.40;97.40;;;;;;4941381;29;20172;-85
2022/01/30 10:42:48;;;;;;;83.45;11.52;;;7.40;96.50;;;;;;4943268;29;20507;-86
2022/01/30 10:45:28;;;;;;;82.05;11.32;;;7.50;95.90;;;;;;4943579;29;20188;-85
2022/01/30 10:48:17;;;;;;;74.35;9.48;;;7.60;95.30;;;;;;4943131;29;20183;-87
2022/01/30 10:50:48;;;;;;;77.97;10.93;;;7.60;95.10;;;;;;4944195;29;20155;-86
2022/01/30 10:53:25;;;;;;;81.75;11.50;;;7.80;94.30;;;;;;4942643;29;20199;-86
2022/01/30 10:55:52;;;;;;;79.43;16.98;;;7.90;90.80;;;;;;4943979;29;20196;-86
2022/01/30 10:58:23;;;;;;;77.22;19.92;;;7.90;90.00;;;;;;4942075;29;20184;-86
2022/01/30 11:00:56;;;;;;;84.68;13.23;;;7.80;90.40;;;;;;4942826;29;20164;-85
2022/01/30 11:03:50;;;;;;;75.45;11.40;;;7.90;93.70;;;;;;4945482;29;20187;-86
2022/01/30 11:06:16;;;;;;;74.78;15.38;;;7.90;92.80;;;;;;4943268;29;20203;-86
2022/01/30 11:08:46;;;;;;;85.93;17.15;;;7.80;89.50;;;;;;4942908;29;20173;-86
2022/01/30 11:11:34;;;;;;;83.03;26.50;;;7.80;90.10;;;;;;4943821;29;20526;-85
2022/01/30 11:14:13;;;;;;;77.43;12.20;;;7.70;90.00;;;;;;4939722;29;20577;-86
2022/01/30 11:16:57;;;;;;;75.85;9.38;;;7.60;91.30;;;;;;4940529;29;20198;-86
2022/01/30 11:19:24;;;;;;;76.30;10.60;;;7.60;92.90;;;;;;4939656;29;20161;-86
2022/01/30 11:21:51;;;;;;;83.38;20.42;;;7.60;92.90;;;;;;4939261;29;20165;-86
2022/01/30 11:24:19;;;;;;;84.25;13.70;;;7.70;90.60;;;;;;4940218;29;20176;-85
2022/01/30 11:26:46;;;;;;;81.45;17.48;;;7.70;93.20;;;;;;4938579;29;20177;-86
2022/01/30 11:29:13;;;;;;;80.63;22.63;;;7.80;93.20;;;;;;4939163;29;20176;-86
2022/01/30 11:31:42;;;;;;;79.80;21.48;;;7.80;91.70;;;;;;4938495;29;20173;-86
2022/01/30 11:34:08;;;;;;;80.43;23.48;;;7.70;86.30;;;;;;4938086;29;20196;-86
2022/01/30 11:36:38;;;;;;;83.73;25.23;;;7.70;75.90;;;;;;4939996;29;20227;-86
2022/01/30 11:39:05;;;;;;;79.10;19.95;;;7.60;80.00;;;;;;4938037;29;20404;-86
2022/01/30 11:41:34;;;;;;;82.15;14.25;;;7.50;60.70;;;;;;4940092;29;20532;-86
2022/01/30 11:44:18;;;;;;;82.22;18.35;;;7.50;67.70;;;;;;4937716;29;20173;-86
2022/01/30 11:46:56;;;;;;;79.53;16.85;;;7.60;75.50;;;;;;4937642;29;20173;-85
2022/01/30 11:49:23;;;;;;;74.20;13.98;;;7.60;68.90;;;;;;4939311;29;20227;-85
2022/01/30 11:51:50;;;;;;;78.97;9.07;;;7.70;63.50;;;;;;4937960;29;20193;-85
2022/01/30 11:55:01;;;;;;;76.10;12.00;;;7.80;64.00;;;;;;4939265;29;20189;-86
2022/01/30 11:57:29;;;;;;;82.03;15.15;;;7.90;60.30;;;;;;4940839;29;20229;-86
2022/01/30 12:00:00;;;;;;;85.18;17.60;;;8.00;60.50;;;;;;4939262;29;20269;-86
2022/01/30 12:02:28;;;;;;;81.68;20.10;;;8.10;60.00;;;;;;4939984;29;20185;-86
2022/01/30 12:04:56;;;;;;;81.93;17.70;;;8.10;58.40;;;;;;4938874;29;20197;-86
2022/01/30 12:07:38;;;;;;;77.93;16.27;;;8.20;58.90;;;;;;4940207;29;20227;-85
2022/01/30 12:10:15;;;;;;;84.90;16.90;;;8.20;54.70;;;;;;4940186;29;20184;-86
2022/01/30 12:12:59;;;;;;;80.20;11.57;;;8.10;51.00;;;;;;4938886;29;20220;-86
2022/01/30 12:15:40;;;;;;;81.80;16.55;;;8.00;46.20;;;;;;4940340;29;20240;-86
2022/01/30 12:18:07;;;;;;;83.20;21.77;;;7.90;56.70;;;;;;4940193;29;20153;-85
2022/01/30 12:21:04;;;;;;;86.30;11.98;;;8.00;52.70;;;;;;4938692;29;20175;-86
2022/01/30 12:23:36;;;;;;;77.93;9.23;;;8.00;48.50;;;;;;4939055;29;20172;-86
2022/01/30 12:26:10;;;;;;;74.07;8.35;;;8.00;46.90;;;;;;4938903;29;20203;-85
2022/01/30 12:28:41;;;;;;;78.90;8.25;;;8.10;48.50;;;;;;4939138;29;20591;-85
2022/01/30 12:31:23;;;;;;;81.22;10.63;;;8.00;47.70;;;;;;4939078;29;20168;-86
2022/01/30 12:34:06;;;;;;;73.55;8.80;;;8.00;44.80;;;;;;4938961;29;20193;-85
2022/01/30 12:36:35;;;;;;;78.25;12.32;;;8.10;45.30;;;;;;4940390;29;20166;-86
2022/01/30 12:39:22;;;;;;;75.47;12.68;;;8.10;38.40;;;;;;4939710;29;20501;-86
2022/01/30 12:41:52;;;;;;;80.15;15.13;;;8.10;37.50;;;;;;4938179;29;20184;-86
2022/01/30 12:44:29;;;;;;;73.05;10.75;;;8.10;32.60;;;;;;4938607;29;20187;-86
2022/01/30 12:46:56;;;;;;;85.75;12.65;;;8.10;38.20;;;;;;4939911;29;20161;-85
2022/01/30 12:49:28;;;;;;;85.45;10.70;;;8.00;36.50;;;;;;4938010;29;20231;-86
2022/01/30 12:51:58;;;;;;;79.82;12.60;;;8.10;33.20;;;;;;4937988;29;20260;-86
2022/01/30 12:54:27;;;;;;;74.03;14.00;;;8.00;29.70;;;;;;4937657;29;20212;-86
2022/01/30 12:56:54;;;;;;;74.25;9.73;;;7.90;26.90;;;;;;4936367;29;20171;-85
2022/01/30 12:59:23;;;;;;;77.18;8.60;;;7.80;28.00;;;;;;4937068;29;20177;-86
2022/01/30 13:01:50;;;;;;;73.70;10.70;;;7.80;18.90;;;;;;4936685;29;20168;-85
2022/01/30 13:04:26;;;;;;;84.68;11.50;;;7.70;19.50;;;;;;4936292;29;20207;-86
2022/01/30 13:06:53;;;;;;;76.38;10.55;;;7.70;25.80;;;;;;4938010;29;20152;-86
2022/01/30 13:09:21;;;;;;;77.63;14.25;;;7.70;26.10;;;;;;4937795;29;20168;-85
2022/01/30 13:11:50;;;;;;;75.30;12.00;;;7.70;25.40;;;;;;4936842;29;20206;-86
2022/01/30 13:14:16;;;;;;;72.45;8.77;;;7.80;25.90;;;;;;4937114;29;20224;-86
2022/01/30 13:16:45;;;;;;;80.88;7.43;;;7.90;21.40;;;;;;4936909;29;20177;-86
2022/01/30 13:19:13;;;;;;;84.18;6.55;;;7.80;17.40;;;;;;4936430;29;20200;-86
2022/01/30 13:21:45;;;;;;;75.22;6.85;;;7.80;19.20;;;;;;4939236;29;20169;-86
2022/01/30 13:24:16;;;;;;;84.57;7.85;;;7.90;19.70;;;;;;4928555;29;20574;-86
2022/01/30 13:26:43;;;;;;;84.03;7.30;;;8.00;14.80;;;;;;4944955;29;20184;-87
2022/01/30 13:29:31;;;;;;;87.63;7.80;;;8.00;18.20;;;;;;4944772;29;20176;-87
2022/01/30 13:32:15;;;;;;;80.38;5.20;;;8.20;17.20;;;;;;4945472;29;20163;-87
2022/01/30 13:34:42;;;;;;;73.85;6.93;;;8.20;14.50;;;;;;4944747;29;20200;-86
2022/01/30 13:37:19;;;;;;;80.22;8.75;;;8.40;6.80;;;;;;4945347;29;20171;-86
2022/01/30 13:45:05;;;;;;;74.53;7.95;;;8.50;1.00;;;;;;4944803;29;20200;-87
2022/01/30 13:47:34;;;;;;;73.85;7.13;;;8.40;1.00;;;;;;5019975;23;20178;-86
2022/01/30 13:50:21;;;;;;;80.65;5.63;;;8.30;14.70;;;;;;4941803;29;20189;-85
2022/01/30 13:53:09;;;;;;;75.38;5.47;;;8.00;14.50;;;;;;4940989;29;20256;-87
2022/01/30 13:56:01;;;;;;;78.22;5.20;;;7.90;18.40;;;;;;4941932;29;20635;-87
2022/01/30 13:58:51;;;;;;;73.05;8.30;;;7.90;24.80;;;;;;4941086;29;20767;-87
2022/01/30 14:01:30;;;;;;;91.13;5.95;;;8.10;26.70;;;;;;4943150;29;20184;-86
2022/01/30 14:04:11;;;;;;;75.00;7.35;;;8.20;20.50;;;;;;4942974;29;20203;-86
2022/01/30 14:06:38;;;;;;;79.63;6.40;;;8.30;15.20;;;;;;4940724;29;20716;-85
2022/01/30 14:09:25;;;;;;;76.28;11.10;;;8.50;13.30;;;;;;4941011;29;20180;-86
2022/01/30 14:12:07;;;;;;;74.68;11.43;;;8.60;9.10;;;;;;4944306;29;20249;-87
2022/01/30 14:14:37;;;;;;;82.28;11.13;;;8.60;3.80;;;;;;4944019;29;20208;-87
2022/01/30 14:17:07;;;;;;;75.93;10.32;;;8.70;1.00;;;;;;4945775;29;20153;-87
2022/01/30 14:19:55;;;;;;;94.38;9.30;;;8.60;1.00;;;;;;4945518;29;20145;-86
2022/01/30 14:22:32;;;;;;;81.63;9.18;;;8.50;1.40;;;;;;4941757;29;20180;-86
2022/01/30 14:25:12;;;;;;;78.07;8.07;;;8.50;7.70;;;;;;4945770;29;20574;-87
2022/01/30 14:27:39;;;;;;;81.13;9.55;;;8.50;8.70;;;;;;4944839;29;20172;-86
2022/01/30 14:30:10;;;;;;;73.97;11.23;;;8.50;3.70;;;;;;4945359;29;20552;-87
2022/01/30 14:32:41;;;;;;;87.97;11.40;;;8.60;8.40;;;;;;4945619;29;20184;-86
2022/01/30 14:35:14;;;;;;;76.50;9.63;;;8.60;1.00;;;;;;4944028;29;20192;-86
2022/01/30 14:37:44;;;;;;;82.20;9.70;;;8.50;1.00;;;;;;4945984;29;20527;-87
2022/01/30 14:40:12;;;;;;;77.78;8.35;;;8.50;5.10;;;;;;4944631;29;20223;-87
2022/01/30 14:42:37;;;;;;;79.22;8.30;;;8.50;8.90;;;;;;4946351;29;20183;-88
2022/01/30 14:45:04;;;;;;;71.77;8.80;;;8.50;8.30;;;;;;4944546;29;20192;-86
2022/01/30 14:47:30;;;;;;;82.47;7.72;;;8.50;9.30;;;;;;4945121;29;20172;-86
2022/01/30 14:49:58;;;;;;;72.80;7.77;;;8.40;17.20;;;;;;4943511;29;20188;-87
2022/01/30 14:52:30;;;;;;;79.03;8.20;;;8.40;14.50;;;;;;4944246;29;20765;-87
2022/01/30 14:54:58;;;;;;;79.57;7.95;;;8.30;12.40;;;;;;4944284;29;20200;-86
2022/01/30 14:57:24;;;;;;;71.30;7.05;;;8.20;18.30;;;;;;4942364;29;20172;-87
2022/01/30 14:59:51;;;;;;;73.73;7.43;;;8.30;20.90;;;;;;4941592;29;20168;-87
2022/01/30 15:02:20;;;;;;;80.70;6.78;;;8.30;23.10;;;;;;4942597;29;20476;-87
2022/01/30 15:04:51;;;;;;;75.20;6.07;;;8.30;25.50;;;;;;4941353;29;20189;-87
2022/01/30 15:07:20;;;;;;;71.35;7.53;;;8.30;23.40;;;;;;4941678;29;20175;-87
2022/01/30 15:09:49;;;;;;;76.32;7.90;;;8.30;20.30;;;;;;4941967;29;20171;-87
2022/01/30 15:12:18;;;;;;;76.55;6.57;;;8.30;20.80;;;;;;4942051;29;20200;-87
2022/01/30 15:14:50;;;;;;;77.25;6.57;;;8.20;25.00;;;;;;4940673;29;20601;-87
2022/01/30 15:17:28;;;;;;;73.28;6.43;;;8.20;26.10;;;;;;4941629;29;20172;-87
2022/01/30 15:19:54;;;;;;;77.70;7.03;;;8.10;28.60;;;;;;4942915;29;20214;-86
2022/01/30 15:22:25;;;;;;;80.20;6.77;;;8.10;28.90;;;;;;4942772;29;20652;-87
2022/01/30 15:24:57;;;;;;;73.65;7.10;;;8.10;29.30;;;;;;4941980;29;20192;-87
2022/01/30 15:27:23;;;;;;;74.00;6.18;;;8.20;33.00;;;;;;4941334;29;20191;-87
2022/01/30 15:29:51;;;;;;;85.18;6.53;;;8.20;34.50;;;;;;4942990;29;20673;-87
2022/01/30 15:32:17;;;;;;;72.18;5.32;;;8.10;35.00;;;;;;4941673;29;20212;-87
2022/01/30 15:34:46;;;;;;;79.30;6.53;;;8.10;33.60;;;;;;4942407;29;20626;-86